createdAt,value
2018-05-01T00:00:12.934Z,8.60
2018-05-01T00:02:41.080Z,8.60
2018-05-01T00:05:09.258Z,8.50
2018-05-01T00:07:37.405Z,8.40
2018-05-01T00:10:05.581Z,8.30
2018-05-01T00:12:33.731Z,8.20
2018-05-01T00:15:01.912Z,8.20
2018-05-01T00:17:30.057Z,8.10
2018-05-01T00:19:58.234Z,8.00
2018-05-01T00:22:26.391Z,7.90
2018-05-01T00:24:54.559Z,7.90
2018-05-01T00:27:22.714Z,7.80
2018-05-01T00:29:50.894Z,7.80
2018-05-01T00:32:19.036Z,7.70
2018-05-01T00:34:47.233Z,7.70
2018-05-01T00:37:15.380Z,7.70
2018-05-01T00:39:43.553Z,7.60
2018-05-01T00:42:11.701Z,7.60
2018-05-01T00:44:39.873Z,7.50
2018-05-01T00:47:08.025Z,7.50
2018-05-01T00:49:36.200Z,7.50
2018-05-01T00:52:04.344Z,7.50
2018-05-01T00:54:32.517Z,7.50
2018-05-01T00:57:00.665Z,7.60
2018-05-01T00:59:28.852Z,7.80
2018-05-01T01:01:57.009Z,8.30
2018-05-01T01:04:25.184Z,8.90
2018-05-01T01:06:53.332Z,9.30
2018-05-01T01:09:21.510Z,9.70
2018-05-01T01:11:49.660Z,9.90
2018-05-01T01:14:17.841Z,10.10
2018-05-01T01:16:45.987Z,10.30
2018-05-01T01:19:14.176Z,10.50
2018-05-01T01:21:42.323Z,10.60
2018-05-01T01:24:10.508Z,10.80
2018-05-01T01:26:38.660Z,10.90
2018-05-01T01:29:06.841Z,11.00
2018-05-01T01:31:34.997Z,11.00
2018-05-01T01:34:03.173Z,11.00
2018-05-01T01:36:30.837Z,11.10
2018-05-01T01:38:58.525Z,11.10
2018-05-01T01:41:26.188Z,11.10
2018-05-01T01:43:53.872Z,11.10
2018-05-01T01:46:22.303Z,11.10
2018-05-01T01:48:49.992Z,11.10
2018-05-01T01:51:17.659Z,11.00
2018-05-01T01:53:45.341Z,11.00
2018-05-01T01:56:13.001Z,11.00
2018-05-01T01:58:41.452Z,11.20
2018-05-01T02:01:09.113Z,11.10
2018-05-01T02:03:36.779Z,11.20
2018-05-01T02:06:04.464Z,11.20
2018-05-01T02:08:32.120Z,11.20
2018-05-01T02:10:59.806Z,11.20
2018-05-01T02:13:27.471Z,11.30
2018-05-01T02:15:55.152Z,11.30
2018-05-01T02:18:22.814Z,11.30
2018-05-01T02:20:50.499Z,11.20
2018-05-01T02:23:18.156Z,11.10
2018-05-01T02:25:45.836Z,11.10
2018-05-01T02:28:13.496Z,11.10
2018-05-01T02:30:41.176Z,11.10
2018-05-01T02:33:08.836Z,11.10
2018-05-01T02:35:36.526Z,11.10
2018-05-01T02:38:04.189Z,11.10
2018-05-01T02:40:31.872Z,11.10
2018-05-01T02:42:59.525Z,11.10
2018-05-01T02:45:27.213Z,11.10
2018-05-01T02:47:54.868Z,11.00
2018-05-01T02:50:22.552Z,10.90
2018-05-01T02:52:50.217Z,10.90
2018-05-01T02:55:17.920Z,10.90
2018-05-01T02:57:45.576Z,10.90
2018-05-01T03:00:14.036Z,10.80
2018-05-01T03:02:41.696Z,10.80
2018-05-01T03:05:09.390Z,10.80
2018-05-01T03:07:37.066Z,10.80
2018-05-01T03:10:04.749Z,10.80
2018-05-01T03:12:32.408Z,10.80
2018-05-01T03:15:00.095Z,10.70
2018-05-01T03:17:27.749Z,10.70
2018-05-01T03:19:55.431Z,10.70
2018-05-01T03:22:23.094Z,10.70
2018-05-01T03:24:50.785Z,10.70
2018-05-01T03:27:18.437Z,10.60
2018-05-01T03:29:46.884Z,10.60
2018-05-01T03:32:14.548Z,10.60
2018-05-01T03:34:42.232Z,10.60
2018-05-01T03:37:09.890Z,10.60
2018-05-01T03:39:37.575Z,10.60
2018-05-01T03:42:05.988Z,10.60
2018-05-01T03:44:33.672Z,10.60
2018-05-01T03:47:01.329Z,10.70
2018-05-01T03:49:29.017Z,10.70
2018-05-01T03:51:56.672Z,10.70
2018-05-01T03:54:24.361Z,10.80
2018-05-01T03:56:52.026Z,10.80
2018-05-01T03:59:19.718Z,10.80
2018-05-01T04:01:47.389Z,10.90
2018-05-01T04:04:15.939Z,11.00
2018-05-01T04:06:43.602Z,11.00
2018-05-01T04:09:11.261Z,11.00
2018-05-01T04:11:38.956Z,11.00
2018-05-01T04:14:06.608Z,10.90
2018-05-01T04:16:34.297Z,11.00
2018-05-01T04:19:01.955Z,11.00
2018-05-01T04:21:29.640Z,11.00
2018-05-01T04:23:57.298Z,11.00
2018-05-01T04:26:24.985Z,11.00
2018-05-01T04:28:52.641Z,11.10
2018-05-01T04:31:20.318Z,11.10
2018-05-01T04:33:48.740Z,11.20
2018-05-01T04:36:16.428Z,11.20
2018-05-01T04:38:44.081Z,11.20
2018-05-01T04:41:11.760Z,11.20
2018-05-01T04:43:39.416Z,11.20
2018-05-01T04:46:07.099Z,11.30
2018-05-01T04:48:34.752Z,11.30
2018-05-01T04:51:02.436Z,11.40
2018-05-01T04:53:30.856Z,11.50
2018-05-01T04:55:58.540Z,11.40
2018-05-01T04:58:26.288Z,11.50
2018-05-01T05:00:53.985Z,11.50
2018-05-01T05:03:21.668Z,11.60
2018-05-01T05:05:49.359Z,11.60
2018-05-01T05:08:17.020Z,11.60
2018-05-01T05:10:44.699Z,11.70
2018-05-01T05:13:12.355Z,11.70
2018-05-01T05:15:40.049Z,11.70
2018-05-01T05:18:08.479Z,11.60
2018-05-01T05:20:36.160Z,11.60
2018-05-01T05:23:03.820Z,11.60
2018-05-01T05:25:31.533Z,11.60
2018-05-01T05:27:59.196Z,11.60
2018-05-01T05:30:27.653Z,11.60
2018-05-01T05:32:55.318Z,11.60
2018-05-01T05:35:23.005Z,11.60
2018-05-01T05:37:50.660Z,11.60
2018-05-01T05:40:18.350Z,11.60
2018-05-01T05:42:46.073Z,11.70
2018-05-01T05:45:13.704Z,11.70
2018-05-01T05:47:41.361Z,11.70
2018-05-01T05:50:09.068Z,11.70
2018-05-01T05:52:37.503Z,11.70
2018-05-01T05:55:05.196Z,11.70
2018-05-01T05:57:32.865Z,11.70
2018-05-01T06:00:00.549Z,11.70
2018-05-01T06:02:28.212Z,11.70
2018-05-01T06:04:56.665Z,11.70
2018-05-01T06:07:24.330Z,11.70
2018-05-01T06:09:52.016Z,11.70
2018-05-01T06:12:19.678Z,11.70
2018-05-01T06:14:47.375Z,11.70
2018-05-01T06:17:15.029Z,11.80
2018-05-01T06:19:42.692Z,11.80
2018-05-01T06:22:10.443Z,11.90
2018-05-01T06:24:38.145Z,11.90
2018-05-01T06:27:05.846Z,12.00
2018-05-01T06:29:34.270Z,12.10
2018-05-01T06:32:01.973Z,12.10
2018-05-01T06:34:29.636Z,12.10
2018-05-01T06:36:57.396Z,12.20
2018-05-01T06:39:24.997Z,12.20
2018-05-01T06:41:52.713Z,12.20
2018-05-01T06:44:20.375Z,12.30
2018-05-01T06:46:48.081Z,12.30
2018-05-01T06:49:15.748Z,12.30
2018-05-01T06:51:43.436Z,12.40
2018-05-01T06:54:11.098Z,12.40
2018-05-01T06:56:38.848Z,12.40
2018-05-01T06:59:06.504Z,12.50
2018-05-01T07:01:34.189Z,12.50
2018-05-01T07:04:01.853Z,12.50
2018-05-01T07:06:29.537Z,12.60
2018-05-01T07:08:57.443Z,12.60
2018-05-01T07:11:25.205Z,12.70
2018-05-01T07:13:52.920Z,12.80
2018-05-01T07:16:20.661Z,13.00
2018-05-01T07:18:48.512Z,13.10
2018-05-01T07:21:16.313Z,13.30
2018-05-01T07:23:43.978Z,13.50
2018-05-01T07:26:11.736Z,13.60
2018-05-01T07:28:39.441Z,13.60
2018-05-01T07:31:07.284Z,13.60
2018-05-01T07:33:34.978Z,13.70
2018-05-01T07:36:02.668Z,13.70
2018-05-01T07:38:30.359Z,13.70
2018-05-01T07:40:58.069Z,13.70
2018-05-01T07:43:25.719Z,13.50
2018-05-01T07:45:53.404Z,13.30
2018-05-01T07:48:21.120Z,13.40
2018-05-01T07:50:48.815Z,13.50
2018-05-01T07:53:16.550Z,13.60
2018-05-01T07:55:44.233Z,13.50
2018-05-01T07:58:11.908Z,13.40
2018-05-01T08:00:40.740Z,13.20
2018-05-01T08:03:08.776Z,13.20
2018-05-01T08:05:36.482Z,13.00
2018-05-01T08:08:07.732Z,12.80
2018-05-01T08:10:35.401Z,12.80
2018-05-01T08:13:03.128Z,12.80
2018-05-01T08:15:30.928Z,12.90
2018-05-01T08:17:58.629Z,13.20
2018-05-01T08:20:26.352Z,13.60
2018-05-01T08:22:54.193Z,13.70
2018-05-01T08:25:21.885Z,13.90
2018-05-01T08:27:49.800Z,13.90
2018-05-01T08:30:17.790Z,14.10
2018-05-01T08:32:45.667Z,14.40
2018-05-01T08:35:13.339Z,14.30
2018-05-01T08:37:41.115Z,14.20
2018-05-01T08:40:08.795Z,14.20
2018-05-01T08:42:37.248Z,14.40
2018-05-01T08:45:04.967Z,14.40
2018-05-01T08:47:32.665Z,14.50
2018-05-01T08:50:00.371Z,14.60
2018-05-01T08:52:28.058Z,14.60
2018-05-01T08:54:55.783Z,14.40
2018-05-01T08:57:23.629Z,14.10
2018-05-01T08:59:51.230Z,13.90
2018-05-01T09:02:18.959Z,13.50
2018-05-01T09:04:46.663Z,13.20
2018-05-01T09:07:14.354Z,13.00
2018-05-01T09:09:42.013Z,12.80
2018-05-01T09:12:09.741Z,12.70
2018-05-01T09:14:38.219Z,12.90
2018-05-01T09:17:05.952Z,12.90
2018-05-01T09:19:33.768Z,12.90
2018-05-01T09:22:01.592Z,12.90
2018-05-01T09:24:29.367Z,12.80
2018-05-01T09:26:57.175Z,12.70
2018-05-01T09:29:24.909Z,12.70
2018-05-01T09:31:53.479Z,12.70
2018-05-01T09:34:21.142Z,12.60
2018-05-01T09:36:48.898Z,12.50
2018-05-01T09:39:16.609Z,12.50
2018-05-01T09:41:44.301Z,12.50
2018-05-01T09:44:12.010Z,12.50
2018-05-01T09:46:39.699Z,12.50
2018-05-01T09:49:07.392Z,12.60
2018-05-01T09:51:35.078Z,12.60
2018-05-01T09:54:03.256Z,12.70
2018-05-01T09:56:31.404Z,12.70
2018-05-01T09:58:59.627Z,12.70
2018-05-01T10:01:27.821Z,12.70
2018-05-01T10:03:56.081Z,12.70
2018-05-01T10:06:24.236Z,12.70
2018-05-01T10:08:53.283Z,12.60
2018-05-01T10:11:21.438Z,12.60
2018-05-01T10:13:49.617Z,12.50
2018-05-01T10:16:17.859Z,12.40
2018-05-01T10:18:45.989Z,12.40
2018-05-01T10:21:14.141Z,12.30
2018-05-01T10:23:42.333Z,12.30
2018-05-01T10:26:10.510Z,12.20
2018-05-01T10:28:38.802Z,12.20
2018-05-01T10:31:06.925Z,12.30
2018-05-01T10:33:35.105Z,12.30
2018-05-01T10:36:03.259Z,12.40
2018-05-01T10:38:32.429Z,12.50
2018-05-01T10:41:00.430Z,12.40
2018-05-01T10:43:28.646Z,12.50
2018-05-01T10:45:56.863Z,12.50
2018-05-01T10:48:25.138Z,12.60
2018-05-01T10:50:54.131Z,12.50
2018-05-01T10:53:23.148Z,12.50
2018-05-01T10:55:51.310Z,12.40
2018-05-01T10:58:19.479Z,12.50
2018-05-01T11:00:47.653Z,12.40
2018-05-01T11:03:16.634Z,12.30
2018-05-01T11:05:45.601Z,12.20
2018-05-01T11:08:13.937Z,12.20
2018-05-01T11:10:42.191Z,12.20
2018-05-01T11:13:10.439Z,12.10
2018-05-01T11:15:38.649Z,12.20
2018-05-01T11:18:06.895Z,12.10
2018-05-01T11:20:35.056Z,12.10
2018-05-01T11:23:03.271Z,12.10
2018-05-01T11:25:31.505Z,12.00
2018-05-01T11:27:59.778Z,11.90
2018-05-01T11:30:27.951Z,11.90
2018-05-01T11:32:56.132Z,11.90
2018-05-01T11:35:24.360Z,11.90
2018-05-01T11:37:52.540Z,11.90
2018-05-01T11:40:20.726Z,11.90
2018-05-01T11:42:48.915Z,11.90
2018-05-01T11:45:17.142Z,11.90
2018-05-01T11:47:45.321Z,11.90
2018-05-01T11:50:13.596Z,11.80
2018-05-01T11:52:41.893Z,11.80
2018-05-01T11:55:10.223Z,11.70
2018-05-01T11:57:38.462Z,11.60
2018-05-01T12:00:06.693Z,11.50
2018-05-01T12:02:34.936Z,11.50
2018-05-01T12:05:03.279Z,11.40
2018-05-01T12:07:31.496Z,11.30
2018-05-01T12:09:59.750Z,11.30
2018-05-01T12:12:27.970Z,11.20
2018-05-01T12:14:56.808Z,11.20
2018-05-01T12:17:25.042Z,11.10
2018-05-01T12:19:53.245Z,11.10
2018-05-01T12:22:21.418Z,11.10
2018-05-01T12:24:49.648Z,11.10
2018-05-01T12:27:17.860Z,11.10
2018-05-01T12:29:46.073Z,11.10
2018-05-01T12:32:14.266Z,11.10
2018-05-01T12:34:43.408Z,11.00
2018-05-01T12:37:11.785Z,11.00
2018-05-01T12:39:39.921Z,11.00
2018-05-01T12:42:08.224Z,11.00
2018-05-01T12:44:36.458Z,10.90
2018-05-01T12:47:04.763Z,10.90
2018-05-01T12:49:32.973Z,10.90
2018-05-01T12:52:01.210Z,10.90
2018-05-01T12:54:29.497Z,10.90
2018-05-01T12:56:57.733Z,11.00
2018-05-01T12:59:25.994Z,10.90
2018-05-01T13:01:54.209Z,10.90
2018-05-01T13:04:23.219Z,10.90
2018-05-01T13:06:51.428Z,10.90
2018-05-01T13:09:19.745Z,10.90
2018-05-01T13:11:47.959Z,10.90
2018-05-01T13:14:16.185Z,10.90
2018-05-01T13:16:44.435Z,10.90
2018-05-01T13:19:12.648Z,10.90
2018-05-01T13:21:40.843Z,10.80
2018-05-01T13:24:09.047Z,10.80
2018-05-01T13:26:37.242Z,10.80
2018-05-01T13:29:05.461Z,10.80
2018-05-01T13:31:34.389Z,10.90
2018-05-01T13:34:02.617Z,10.80
2018-05-01T13:36:30.819Z,10.80
2018-05-01T13:38:59.040Z,10.80
2018-05-01T13:41:27.272Z,10.70
2018-05-01T13:43:55.457Z,10.70
2018-05-01T13:46:23.674Z,10.70
2018-05-01T13:48:51.862Z,10.70
2018-05-01T13:51:20.041Z,10.70
2018-05-01T13:53:48.254Z,10.70
2018-05-01T13:56:16.479Z,10.70
2018-05-01T13:58:44.697Z,10.70
2018-05-01T14:01:12.916Z,10.70
2018-05-01T14:03:41.107Z,10.70
2018-05-01T14:06:09.332Z,10.60
2018-05-01T14:08:37.496Z,10.60
2018-05-01T14:11:05.691Z,10.60
2018-05-01T14:13:33.855Z,10.50
2018-05-01T14:16:02.035Z,10.50
2018-05-01T14:18:30.201Z,10.50
2018-05-01T14:20:58.728Z,10.50
2018-05-01T14:23:26.900Z,10.50
2018-05-01T14:25:55.118Z,10.50
2018-05-01T14:28:23.268Z,10.50
2018-05-01T14:30:51.446Z,10.50
2018-05-01T14:33:19.608Z,10.50
2018-05-01T14:35:48.569Z,10.50
2018-05-01T14:38:16.777Z,10.40
2018-05-01T14:40:44.955Z,10.50
2018-05-01T14:43:13.124Z,10.50
2018-05-01T14:45:42.074Z,10.50
2018-05-01T14:48:10.226Z,10.50
2018-05-01T14:50:38.404Z,10.50
2018-05-01T14:53:06.556Z,10.50
2018-05-01T14:55:34.738Z,10.50
2018-05-01T14:58:02.885Z,10.50
2018-05-01T15:00:31.055Z,10.50
2018-05-01T15:03:03.805Z,10.50
2018-05-01T15:05:31.980Z,10.40
2018-05-01T15:08:00.133Z,10.50
2018-05-01T15:10:28.349Z,10.60
2018-05-01T15:12:56.520Z,10.70
2018-05-01T15:15:24.745Z,10.70
2018-05-01T15:17:52.900Z,10.70
2018-05-01T15:20:21.836Z,10.70
2018-05-01T15:22:50.337Z,10.70
2018-05-01T15:25:18.574Z,10.70
2018-05-01T15:27:46.737Z,10.70
2018-05-01T15:30:15.004Z,10.60
2018-05-01T15:32:43.136Z,10.60
2018-05-01T15:35:11.350Z,10.50
2018-05-01T15:37:39.559Z,10.60
2018-05-01T15:40:07.720Z,10.60
2018-05-01T15:42:35.887Z,10.60
2018-05-01T15:45:04.064Z,10.60
2018-05-01T15:47:32.332Z,10.70
2018-05-01T15:50:00.581Z,10.70
2018-05-01T15:52:29.524Z,10.70
2018-05-01T15:54:57.671Z,10.70
2018-05-01T15:57:25.844Z,10.70
2018-05-01T15:59:53.991Z,10.70
2018-05-01T16:02:22.184Z,10.70
2018-05-01T16:04:50.328Z,10.60
2018-05-01T16:07:19.094Z,10.60
2018-05-01T16:09:47.257Z,10.50
2018-05-01T16:12:15.500Z,10.50
2018-05-01T16:14:43.652Z,10.50
2018-05-01T16:17:11.845Z,10.50
2018-05-01T16:19:40.058Z,10.40
2018-05-01T16:22:08.328Z,10.40
2018-05-01T16:24:36.472Z,10.40
2018-05-01T16:27:04.830Z,10.40
2018-05-01T16:29:33.199Z,10.30
2018-05-01T16:32:01.519Z,10.30
2018-05-01T16:34:29.727Z,10.30
2018-05-01T16:36:57.931Z,10.30
2018-05-01T16:39:26.872Z,10.20
2018-05-01T16:41:55.077Z,10.20
2018-05-01T16:44:23.249Z,10.20
2018-05-01T16:46:51.442Z,10.20
2018-05-01T16:49:19.634Z,10.20
2018-05-01T16:51:47.826Z,10.10
2018-05-01T16:54:16.009Z,10.00
2018-05-01T16:56:44.191Z,9.90
2018-05-01T16:59:12.391Z,9.90
2018-05-01T17:01:40.568Z,9.90
2018-05-01T17:04:08.808Z,9.90
2018-05-01T17:06:36.983Z,9.80
2018-05-01T17:09:05.135Z,9.80
2018-05-01T17:11:33.308Z,9.80
2018-05-01T17:14:01.468Z,9.70
2018-05-01T17:16:30.409Z,9.70
2018-05-01T17:18:58.560Z,9.70
2018-05-01T17:21:26.731Z,9.70
2018-05-01T17:23:54.875Z,9.70
2018-05-01T17:26:23.055Z,9.60
2018-05-01T17:28:52.007Z,9.60
2018-05-01T17:31:20.181Z,9.60
2018-05-01T17:33:48.338Z,9.60
2018-05-01T17:36:16.516Z,9.50
2018-05-01T17:38:44.700Z,9.50
2018-05-01T17:41:12.880Z,9.40
2018-05-01T17:43:41.030Z,9.40
2018-05-01T17:46:09.230Z,9.40
2018-05-01T17:48:37.403Z,9.30
2018-05-01T17:51:05.643Z,9.20
2018-05-01T17:53:33.816Z,9.20
2018-05-01T17:56:01.965Z,9.20
2018-05-01T17:58:30.146Z,9.10
2018-05-01T18:00:59.073Z,9.10
2018-05-01T18:03:27.263Z,9.10
2018-05-01T18:05:55.436Z,9.00
2018-05-01T18:08:23.621Z,9.00
2018-05-01T18:10:51.794Z,9.00
2018-05-01T18:13:19.989Z,9.00
2018-05-01T18:15:48.136Z,9.00
2018-05-01T18:18:16.317Z,9.10
2018-05-01T18:20:44.472Z,9.00
2018-05-01T18:23:12.665Z,9.00
2018-05-01T18:25:40.825Z,9.00
2018-05-01T18:28:09.009Z,9.00
2018-05-01T18:30:37.272Z,9.10
2018-05-01T18:33:06.262Z,9.00
2018-05-01T18:35:34.417Z,9.00
2018-05-01T18:38:02.713Z,9.10
2018-05-01T18:40:30.938Z,9.00
2018-05-01T18:42:59.155Z,9.10
2018-05-01T18:45:27.343Z,9.00
2018-05-01T18:47:55.586Z,9.10
2018-05-01T18:50:23.818Z,9.00
2018-05-01T18:52:52.088Z,9.00
2018-05-01T18:55:22.559Z,9.00
2018-05-01T18:57:53.142Z,9.10
2018-05-01T19:00:21.406Z,9.00
2018-05-01T19:02:49.712Z,9.10
2018-05-01T19:05:17.884Z,9.00
2018-05-01T19:07:46.110Z,9.10
2018-05-01T19:10:14.509Z,9.00
2018-05-01T19:12:42.711Z,9.10
2018-05-01T19:15:11.666Z,9.00
2018-05-01T19:17:39.885Z,9.00
2018-05-01T19:20:08.052Z,9.00
2018-05-01T19:22:36.265Z,9.10
2018-05-01T19:25:04.475Z,9.00
2018-05-01T19:27:32.656Z,9.00
2018-05-01T19:30:00.840Z,9.00
2018-05-01T19:32:29.074Z,9.00
2018-05-01T19:34:57.231Z,9.00
2018-05-01T19:37:25.411Z,9.00
2018-05-01T19:39:53.581Z,9.00
2018-05-01T19:42:21.763Z,9.00
2018-05-01T19:44:49.918Z,9.00
2018-05-01T19:47:18.123Z,8.90
2018-05-01T19:49:46.307Z,8.90
2018-05-01T19:52:14.633Z,8.90
2018-05-01T19:54:43.555Z,8.80
2018-05-01T19:57:11.746Z,8.80
2018-05-01T19:59:39.906Z,8.70
2018-05-01T20:02:08.069Z,8.60
2018-05-01T20:04:36.243Z,8.60
2018-05-01T20:07:04.438Z,8.50
2018-05-01T20:09:33.295Z,8.50
2018-05-01T20:12:02.213Z,8.40
2018-05-01T20:14:30.420Z,8.40
2018-05-01T20:16:58.630Z,8.30
2018-05-01T20:19:26.816Z,8.20
2018-05-01T20:21:54.973Z,8.20
2018-05-01T20:24:23.147Z,8.20
2018-05-01T20:26:51.323Z,8.10
2018-05-01T20:29:20.288Z,8.10
2018-05-01T20:31:48.439Z,8.10
2018-05-01T20:34:16.604Z,8.10
2018-05-01T20:36:44.758Z,8.10
2018-05-01T20:39:12.946Z,8.10
2018-05-01T20:41:41.095Z,8.10
2018-05-01T20:44:09.280Z,8.10
2018-05-01T20:46:37.425Z,8.00
2018-05-01T20:49:06.379Z,7.90
2018-05-01T20:51:34.532Z,7.90
2018-05-01T20:54:02.720Z,7.90
2018-05-01T20:56:30.873Z,7.80
2018-05-01T20:58:59.078Z,7.70
2018-05-01T21:01:27.231Z,7.70
2018-05-01T21:03:55.399Z,7.60
2018-05-01T21:06:23.552Z,7.50
2018-05-01T21:08:51.729Z,7.50
2018-05-01T21:11:19.876Z,7.50
2018-05-01T21:13:48.069Z,7.40
2018-05-01T21:16:16.980Z,7.40
2018-05-01T21:18:45.150Z,7.30
2018-05-01T21:21:13.303Z,7.30
2018-05-01T21:23:41.484Z,7.30
2018-05-01T21:26:09.641Z,7.30
2018-05-01T21:28:38.587Z,7.20
2018-05-01T21:31:06.752Z,7.20
2018-05-01T21:33:34.933Z,7.10
2018-05-01T21:36:03.089Z,7.10
2018-05-01T21:38:31.269Z,7.10
2018-05-01T21:40:59.421Z,7.10
2018-05-01T21:43:27.598Z,7.00
2018-05-01T21:45:55.744Z,7.00
2018-05-01T21:48:23.915Z,7.00
2018-05-01T21:50:52.066Z,7.00
2018-05-01T21:53:20.243Z,6.90
2018-05-01T21:55:48.405Z,6.90
2018-05-01T21:58:16.566Z,6.90
2018-05-01T22:00:44.751Z,6.90
2018-05-01T22:03:12.908Z,6.80
2018-05-01T22:05:41.083Z,6.80
2018-05-01T22:08:09.261Z,6.70
2018-05-01T22:10:37.430Z,6.70
2018-05-01T22:13:05.581Z,6.70
2018-05-01T22:15:33.757Z,6.70
2018-05-01T22:18:01.906Z,6.60
2018-05-01T22:20:30.836Z,6.60
2018-05-01T22:22:58.987Z,6.60
2018-05-01T22:25:27.927Z,6.60
2018-05-01T22:27:56.076Z,6.60
2018-05-01T22:30:24.261Z,6.60
2018-05-01T22:32:52.408Z,6.70
2018-05-01T22:35:20.586Z,6.70
2018-05-01T22:37:48.731Z,6.70
2018-05-01T22:40:16.908Z,6.70
2018-05-01T22:42:45.051Z,6.70
2018-05-01T22:45:13.228Z,6.60
2018-05-01T22:47:41.386Z,6.60
2018-05-01T22:50:09.562Z,6.60
2018-05-01T22:52:37.711Z,6.60
2018-05-01T22:55:05.890Z,6.60
2018-05-01T22:57:34.040Z,6.50
2018-05-01T23:00:02.218Z,6.50
2018-05-01T23:02:30.366Z,6.50
2018-05-01T23:04:58.537Z,6.50
2018-05-01T23:07:26.677Z,6.40
2018-05-01T23:09:54.926Z,6.40
2018-05-01T23:12:23.020Z,6.40
2018-05-01T23:14:51.192Z,6.40
2018-05-01T23:17:19.338Z,6.40
2018-05-01T23:19:47.505Z,6.40
2018-05-01T23:22:15.647Z,6.40
2018-05-01T23:24:43.825Z,6.40
2018-05-01T23:27:11.969Z,6.40
2018-05-01T23:29:40.141Z,6.30
2018-05-01T23:32:08.289Z,6.30
2018-05-01T23:34:36.452Z,6.20
2018-05-01T23:37:04.603Z,6.30
2018-05-01T23:39:32.774Z,6.20
2018-05-01T23:42:00.920Z,6.20
2018-05-01T23:44:29.084Z,6.20
2018-05-01T23:46:57.240Z,6.20
2018-05-01T23:49:25.432Z,6.10
2018-05-01T23:51:53.582Z,6.10
2018-05-01T23:54:21.763Z,6.10
2018-05-01T23:56:49.903Z,6.10
2018-05-01T23:59:18.049Z,6.10
